sensor_id;sensor_type;location;lat;lon;timestamp;P1;durP1;ratioP1;P2;durP2;ratioP2
10719;SDS011;5411;58.386;15.560;2023-02-12T00:01:25;3.00;;;1.80;;
10719;SDS011;5411;58.386;15.560;2023-02-12T00:03:54;4.20;;;1.50;;
10719;SDS011;5411;58.386;15.560;2023-02-12T00:06:23;3.47;;;1.93;;
10719;SDS011;5411;58.386;15.560;2023-02-12T00:08:52;1.93;;;1.50;;
10719;SDS011;5411;58.386;15.560;2023-02-12T00:11:22;3.30;;;1.43;;
10719;SDS011;5411;58.386;15.560;2023-02-12T00:13:53;2.83;;;1.47;;
10719;SDS011;5411;58.386;15.560;2023-02-12T00:16:25;12.63;;;4.17;;
10719;SDS011;5411;58.386;15.560;2023-02-12T00:18:54;2.13;;;1.40;;
10719;SDS011;5411;58.386;15.560;2023-02-12T00:21:24;2.13;;;1.30;;
10719;SDS011;5411;58.386;15.560;2023-02-12T00:23:53;3.40;;;1.43;;
10719;SDS011;5411;58.386;15.560;2023-02-12T00:26:23;1.90;;;1.40;;
10719;SDS011;5411;58.386;15.560;2023-02-12T00:28:51;2.97;;;1.43;;
10719;SDS011;5411;58.386;15.560;2023-02-12T00:31:22;3.43;;;1.53;;
10719;SDS011;5411;58.386;15.560;2023-02-12T00:33:52;4.97;;;1.57;;
10719;SDS011;5411;58.386;15.560;2023-02-12T00:36:21;2.00;;;1.40;;
10719;SDS011;5411;58.386;15.560;2023-02-12T00:38:51;4.13;;;1.70;;
10719;SDS011;5411;58.386;15.560;2023-02-12T00:41:20;3.03;;;1.93;;
10719;SDS011;5411;58.386;15.560;2023-02-12T00:43:49;4.53;;;1.30;;
10719;SDS011;5411;58.386;15.560;2023-02-12T00:46:18;2.80;;;1.60;;
10719;SDS011;5411;58.386;15.560;2023-02-12T00:48:48;2.90;;;1.53;;
10719;SDS011;5411;58.386;15.560;2023-02-12T00:51:16;2.20;;;1.53;;
10719;SDS011;5411;58.386;15.560;2023-02-12T00:53:44;2.90;;;1.57;;
10719;SDS011;5411;58.386;15.560;2023-02-12T00:56:12;1.83;;;1.37;;
10719;SDS011;5411;58.386;15.560;2023-02-12T00:58:41;3.53;;;1.67;;
10719;SDS011;5411;58.386;15.560;2023-02-12T01:01:09;2.97;;;1.50;;
10719;SDS011;5411;58.386;15.560;2023-02-12T01:03:38;3.30;;;1.50;;
10719;SDS011;5411;58.386;15.560;2023-02-12T01:06:07;1.50;;;1.40;;
10719;SDS011;5411;58.386;15.560;2023-02-12T01:08:36;5.47;;;2.00;;
10719;SDS011;5411;58.386;15.560;2023-02-12T01:11:04;2.93;;;1.70;;
10719;SDS011;5411;58.386;15.560;2023-02-12T01:13:33;3.80;;;1.20;;
10719;SDS011;5411;58.386;15.560;2023-02-12T01:16:04;4.10;;;2.00;;
10719;SDS011;5411;58.386;15.560;2023-02-12T01:18:36;2.20;;;1.30;;
10719;SDS011;5411;58.386;15.560;2023-02-12T01:21:10;3.67;;;1.50;;
10719;SDS011;5411;58.386;15.560;2023-02-12T01:23:40;2.60;;;1.30;;
10719;SDS011;5411;58.386;15.560;2023-02-12T01:26:08;3.47;;;2.07;;
10719;SDS011;5411;58.386;15.560;2023-02-12T01:28:37;2.00;;;1.33;;
10719;SDS011;5411;58.386;15.560;2023-02-12T01:31:11;5.40;;;2.20;;
10719;SDS011;5411;58.386;15.560;2023-02-12T01:33:42;1.83;;;1.43;;
10719;SDS011;5411;58.386;15.560;2023-02-12T01:36:12;2.17;;;1.53;;
10719;SDS011;5411;58.386;15.560;2023-02-12T01:38:40;3.13;;;1.77;;
10719;SDS011;5411;58.386;15.560;2023-02-12T01:41:10;3.40;;;1.53;;
10719;SDS011;5411;58.386;15.560;2023-02-12T01:43:40;4.33;;;1.60;;
10719;SDS011;5411;58.386;15.560;2023-02-12T01:46:10;3.57;;;1.70;;
10719;SDS011;5411;58.386;15.560;2023-02-12T01:48:41;1.97;;;1.60;;
10719;SDS011;5411;58.386;15.560;2023-02-12T01:51:13;3.33;;;1.67;;
10719;SDS011;5411;58.386;15.560;2023-02-12T01:53:49;4.03;;;1.50;;
10719;SDS011;5411;58.386;15.560;2023-02-12T01:56:20;3.33;;;1.77;;
10719;SDS011;5411;58.386;15.560;2023-02-12T01:58:50;2.83;;;1.37;;
10719;SDS011;5411;58.386;15.560;2023-02-12T02:01:23;2.07;;;1.30;;
10719;SDS011;5411;58.386;15.560;2023-02-12T02:03:56;2.73;;;1.60;;
10719;SDS011;5411;58.386;15.560;2023-02-12T02:06:30;2.83;;;1.47;;
10719;SDS011;5411;58.386;15.560;2023-02-12T02:09:01;3.83;;;2.27;;
10719;SDS011;5411;58.386;15.560;2023-02-12T02:11:31;3.50;;;1.60;;
10719;SDS011;5411;58.386;15.560;2023-02-12T02:14:16;4.13;;;1.93;;
10719;SDS011;5411;58.386;15.560;2023-02-12T02:17:22;4.17;;;1.50;;
10719;SDS011;5411;58.386;15.560;2023-02-12T02:23:36;3.47;;;1.43;;
10719;SDS011;5411;58.386;15.560;2023-02-12T02:26:26;1.90;;;1.50;;
10719;SDS011;5411;58.386;15.560;2023-02-12T02:29:08;2.60;;;1.40;;
10719;SDS011;5411;58.386;15.560;2023-02-12T02:31:49;2.43;;;1.40;;
10719;SDS011;5411;58.386;15.560;2023-02-12T02:34:26;2.20;;;1.60;;
10719;SDS011;5411;58.386;15.560;2023-02-12T02:37:03;2.73;;;1.50;;
10719;SDS011;5411;58.386;15.560;2023-02-12T02:39:42;3.97;;;1.80;;
10719;SDS011;5411;58.386;15.560;2023-02-12T02:42:15;2.30;;;1.70;;
10719;SDS011;5411;58.386;15.560;2023-02-12T02:44:51;5.47;;;1.30;;
10719;SDS011;5411;58.386;15.560;2023-02-12T02:47:24;2.10;;;1.70;;
10719;SDS011;5411;58.386;15.560;2023-02-12T02:50:01;1.77;;;1.57;;
10719;SDS011;5411;58.386;15.560;2023-02-12T02:52:33;1.60;;;1.40;;
10719;SDS011;5411;58.386;15.560;2023-02-12T02:55:05;1.50;;;1.40;;
10719;SDS011;5411;58.386;15.560;2023-02-12T02:57:37;2.90;;;1.70;;
10719;SDS011;5411;58.386;15.560;2023-02-12T03:00:11;1.73;;;1.30;;
10719;SDS011;5411;58.386;15.560;2023-02-12T03:02:45;2.60;;;1.60;;
10719;SDS011;5411;58.386;15.560;2023-02-12T03:05:20;3.20;;;1.67;;
10719;SDS011;5411;58.386;15.560;2023-02-12T03:07:55;4.63;;;1.40;;
10719;SDS011;5411;58.386;15.560;2023-02-12T03:10:28;3.80;;;1.63;;
10719;SDS011;5411;58.386;15.560;2023-02-12T03:13:01;1.53;;;1.20;;
10719;SDS011;5411;58.386;15.560;2023-02-12T03:15:35;1.37;;;1.13;;
10719;SDS011;5411;58.386;15.560;2023-02-12T03:18:09;2.27;;;1.67;;
10719;SDS011;5411;58.386;15.560;2023-02-12T03:20:44;2.37;;;1.83;;
10719;SDS011;5411;58.386;15.560;2023-02-12T03:23:20;2.33;;;1.87;;
10719;SDS011;5411;58.386;15.560;2023-02-12T03:25:53;1.30;;;1.20;;
10719;SDS011;5411;58.386;15.560;2023-02-12T03:28:26;2.83;;;1.63;;
10719;SDS011;5411;58.386;15.560;2023-02-12T03:30:58;2.30;;;1.47;;
10719;SDS011;5411;58.386;15.560;2023-02-12T03:33:37;3.70;;;1.43;;
10719;SDS011;5411;58.386;15.560;2023-02-12T03:36:19;1.90;;;1.70;;
10719;SDS011;5411;58.386;15.560;2023-02-12T03:38:56;2.43;;;1.40;;
10719;SDS011;5411;58.386;15.560;2023-02-12T03:41:33;1.60;;;1.30;;
10719;SDS011;5411;58.386;15.560;2023-02-12T03:44:09;3.80;;;1.67;;
10719;SDS011;5411;58.386;15.560;2023-02-12T03:46:48;3.00;;;1.50;;
10719;SDS011;5411;58.386;15.560;2023-02-12T03:49:28;1.43;;;1.33;;
10719;SDS011;5411;58.386;15.560;2023-02-12T03:52:00;5.87;;;1.60;;
10719;SDS011;5411;58.386;15.560;2023-02-12T03:54:31;2.70;;;1.47;;
10719;SDS011;5411;58.386;15.560;2023-02-12T03:57:01;3.17;;;1.50;;
10719;SDS011;5411;58.386;15.560;2023-02-12T03:59:34;2.10;;;1.90;;
10719;SDS011;5411;58.386;15.560;2023-02-12T04:02:04;1.60;;;1.30;;
10719;SDS011;5411;58.386;15.560;2023-02-12T04:04:35;3.07;;;1.47;;
10719;SDS011;5411;58.386;15.560;2023-02-12T04:07:03;3.33;;;1.30;;
10719;SDS011;5411;58.386;15.560;2023-02-12T04:09:32;1.63;;;1.53;;
10719;SDS011;5411;58.386;15.560;2023-02-12T04:12:08;1.97;;;1.30;;
10719;SDS011;5411;58.386;15.560;2023-02-12T04:15:05;1.90;;;1.40;;
10719;SDS011;5411;58.386;15.560;2023-02-12T04:17:47;2.97;;;1.60;;
10719;SDS011;5411;58.386;15.560;2023-02-12T04:20:30;2.13;;;1.63;;
10719;SDS011;5411;58.386;15.560;2023-02-12T04:23:11;2.47;;;1.60;;
10719;SDS011;5411;58.386;15.560;2023-02-12T04:25:51;3.73;;;1.60;;
10719;SDS011;5411;58.386;15.560;2023-02-12T04:28:33;6.23;;;1.77;;
10719;SDS011;5411;58.386;15.560;2023-02-12T04:31:07;3.97;;;1.47;;
10719;SDS011;5411;58.386;15.560;2023-02-12T04:33:42;2.80;;;1.30;;
10719;SDS011;5411;58.386;15.560;2023-02-12T04:36:17;2.00;;;1.47;;
10719;SDS011;5411;58.386;15.560;2023-02-12T04:38:50;2.97;;;1.50;;
10719;SDS011;5411;58.386;15.560;2023-02-12T04:41:27;4.33;;;1.50;;
10719;SDS011;5411;58.386;15.560;2023-02-12T04:43:57;1.97;;;1.13;;
10719;SDS011;5411;58.386;15.560;2023-02-12T04:46:26;6.57;;;1.70;;
10719;SDS011;5411;58.386;15.560;2023-02-12T04:48:55;2.10;;;1.50;;
10719;SDS011;5411;58.386;15.560;2023-02-12T04:51:26;5.47;;;1.60;;
10719;SDS011;5411;58.386;15.560;2023-02-12T04:53:54;7.77;;;2.23;;
10719;SDS011;5411;58.386;15.560;2023-02-12T04:56:23;7.67;;;2.00;;
10719;SDS011;5411;58.386;15.560;2023-02-12T04:58:51;4.27;;;2.37;;
10719;SDS011;5411;58.386;15.560;2023-02-12T05:01:23;3.97;;;1.70;;
10719;SDS011;5411;58.386;15.560;2023-02-12T05:03:51;6.87;;;2.17;;
10719;SDS011;5411;58.386;15.560;2023-02-12T05:06:19;3.87;;;1.77;;
10719;SDS011;5411;58.386;15.560;2023-02-12T05:08:51;11.80;;;2.40;;
10719;SDS011;5411;58.386;15.560;2023-02-12T05:11:27;4.30;;;1.80;;
10719;SDS011;5411;58.386;15.560;2023-02-12T05:13:55;5.07;;;1.70;;
10719;SDS011;5411;58.386;15.560;2023-02-12T05:16:23;7.53;;;2.47;;
10719;SDS011;5411;58.386;15.560;2023-02-12T05:18:51;7.00;;;2.00;;
10719;SDS011;5411;58.386;15.560;2023-02-12T05:21:20;10.40;;;2.20;;
10719;SDS011;5411;58.386;15.560;2023-02-12T05:23:49;5.63;;;2.17;;
10719;SDS011;5411;58.386;15.560;2023-02-12T05:26:19;12.30;;;2.43;;
10719;SDS011;5411;58.386;15.560;2023-02-12T05:28:48;6.13;;;2.27;;
10719;SDS011;5411;58.386;15.560;2023-02-12T05:31:17;8.37;;;2.43;;
10719;SDS011;5411;58.386;15.560;2023-02-12T05:33:47;7.83;;;2.57;;
10719;SDS011;5411;58.386;15.560;2023-02-12T05:36:16;8.27;;;2.77;;
10719;SDS011;5411;58.386;15.560;2023-02-12T05:38:47;11.10;;;3.03;;
10719;SDS011;5411;58.386;15.560;2023-02-12T05:41:18;8.20;;;2.43;;
10719;SDS011;5411;58.386;15.560;2023-02-12T05:43:48;13.27;;;2.83;;
10719;SDS011;5411;58.386;15.560;2023-02-12T05:46:17;7.37;;;2.77;;
10719;SDS011;5411;58.386;15.560;2023-02-12T05:48:46;8.97;;;2.60;;
10719;SDS011;5411;58.386;15.560;2023-02-12T05:51:16;12.97;;;2.80;;
10719;SDS011;5411;58.386;15.560;2023-02-12T05:53:47;10.77;;;2.60;;
10719;SDS011;5411;58.386;15.560;2023-02-12T05:56:18;13.67;;;3.70;;
10719;SDS011;5411;58.386;15.560;2023-02-12T05:58:51;14.00;;;3.13;;
10719;SDS011;5411;58.386;15.560;2023-02-12T06:01:22;11.67;;;3.53;;
10719;SDS011;5411;58.386;15.560;2023-02-12T06:03:53;6.37;;;3.00;;
10719;SDS011;5411;58.386;15.560;2023-02-12T06:06:25;10.20;;;2.60;;
10719;SDS011;5411;58.386;15.560;2023-02-12T06:08:55;15.63;;;2.77;;
10719;SDS011;5411;58.386;15.560;2023-02-12T06:11:25;9.10;;;2.87;;
10719;SDS011;5411;58.386;15.560;2023-02-12T06:13:53;12.57;;;2.40;;
10719;SDS011;5411;58.386;15.560;2023-02-12T06:16:22;16.40;;;3.13;;
10719;SDS011;5411;58.386;15.560;2023-02-12T06:18:53;10.27;;;3.23;;
10719;SDS011;5411;58.386;15.560;2023-02-12T06:21:26;11.97;;;2.97;;
10719;SDS011;5411;58.386;15.560;2023-02-12T06:23:55;10.03;;;3.73;;
10719;SDS011;5411;58.386;15.560;2023-02-12T06:26:25;13.00;;;3.00;;
10719;SDS011;5411;58.386;15.560;2023-02-12T06:28:53;11.63;;;3.40;;
10719;SDS011;5411;58.386;15.560;2023-02-12T06:31:22;13.90;;;3.67;;
10719;SDS011;5411;58.386;15.560;2023-02-12T06:33:53;13.23;;;3.07;;
10719;SDS011;5411;58.386;15.560;2023-02-12T06:36:23;11.97;;;3.30;;
10719;SDS011;5411;58.386;15.560;2023-02-12T06:38:51;13.57;;;3.40;;
10719;SDS011;5411;58.386;15.560;2023-02-12T06:41:20;11.43;;;3.10;;
10719;SDS011;5411;58.386;15.560;2023-02-12T06:43:51;12.47;;;3.40;;
10719;SDS011;5411;58.386;15.560;2023-02-12T06:46:19;16.43;;;4.37;;
10719;SDS011;5411;58.386;15.560;2023-02-12T06:48:51;16.93;;;3.70;;
10719;SDS011;5411;58.386;15.560;2023-02-12T06:51:20;16.20;;;3.73;;
10719;SDS011;5411;58.386;15.560;2023-02-12T06:53:50;9.80;;;3.10;;
10719;SDS011;5411;58.386;15.560;2023-02-12T06:56:19;12.70;;;3.93;;
10719;SDS011;5411;58.386;15.560;2023-02-12T06:58:52;13.70;;;3.70;;
10719;SDS011;5411;58.386;15.560;2023-02-12T07:01:22;8.53;;;3.37;;
10719;SDS011;5411;58.386;15.560;2023-02-12T07:03:53;10.10;;;3.60;;
10719;SDS011;5411;58.386;15.560;2023-02-12T07:06:23;17.27;;;3.53;;
10719;SDS011;5411;58.386;15.560;2023-02-12T07:08:52;16.57;;;3.67;;
10719;SDS011;5411;58.386;15.560;2023-02-12T07:11:22;14.20;;;3.53;;
10719;SDS011;5411;58.386;15.560;2023-02-12T07:13:52;19.60;;;4.03;;
10719;SDS011;5411;58.386;15.560;2023-02-12T07:16:20;17.50;;;4.07;;
10719;SDS011;5411;58.386;15.560;2023-02-12T07:18:49;13.40;;;2.93;;
10719;SDS011;5411;58.386;15.560;2023-02-12T07:21:17;16.87;;;3.50;;
10719;SDS011;5411;58.386;15.560;2023-02-12T07:23:46;16.33;;;4.17;;
10719;SDS011;5411;58.386;15.560;2023-02-12T07:26:17;16.77;;;4.27;;
10719;SDS011;5411;58.386;15.560;2023-02-12T07:28:47;15.13;;;4.50;;
10719;SDS011;5411;58.386;15.560;2023-02-12T07:31:27;19.07;;;3.83;;
10719;SDS011;5411;58.386;15.560;2023-02-12T07:33:56;14.97;;;4.03;;
10719;SDS011;5411;58.386;15.560;2023-02-12T07:36:26;15.57;;;4.07;;
10719;SDS011;5411;58.386;15.560;2023-02-12T07:38:57;12.33;;;3.90;;
10719;SDS011;5411;58.386;15.560;2023-02-12T07:41:26;15.93;;;3.40;;
10719;SDS011;5411;58.386;15.560;2023-02-12T07:44:01;15.57;;;4.83;;
10719;SDS011;5411;58.386;15.560;2023-02-12T07:46:33;14.90;;;4.03;;
10719;SDS011;5411;58.386;15.560;2023-02-12T07:49:04;18.07;;;4.73;;
10719;SDS011;5411;58.386;15.560;2023-02-12T07:51:33;16.60;;;4.13;;
10719;SDS011;5411;58.386;15.560;2023-02-12T07:54:03;12.17;;;4.03;;
10719;SDS011;5411;58.386;15.560;2023-02-12T07:56:32;19.00;;;4.07;;
10719;SDS011;5411;58.386;15.560;2023-02-12T07:59:04;11.93;;;4.30;;
10719;SDS011;5411;58.386;15.560;2023-02-12T08:01:35;11.57;;;3.37;;
10719;SDS011;5411;58.386;15.560;2023-02-12T08:04:05;17.30;;;5.07;;
10719;SDS011;5411;58.386;15.560;2023-02-12T08:06:36;17.27;;;3.93;;
10719;SDS011;5411;58.386;15.560;2023-02-12T08:09:06;12.97;;;3.97;;
10719;SDS011;5411;58.386;15.560;2023-02-12T08:11:37;14.20;;;3.80;;
10719;SDS011;5411;58.386;15.560;2023-02-12T08:14:08;15.90;;;3.43;;
10719;SDS011;5411;58.386;15.560;2023-02-12T08:16:42;10.97;;;3.87;;
10719;SDS011;5411;58.386;15.560;2023-02-12T08:19:12;24.40;;;4.03;;
10719;SDS011;5411;58.386;15.560;2023-02-12T08:21:48;13.33;;;3.77;;
10719;SDS011;5411;58.386;15.560;2023-02-12T08:24:17;20.57;;;3.53;;
10719;SDS011;5411;58.386;15.560;2023-02-12T08:26:47;19.23;;;3.63;;
10719;SDS011;5411;58.386;15.560;2023-02-12T08:29:19;16.90;;;3.57;;
10719;SDS011;5411;58.386;15.560;2023-02-12T08:31:54;13.70;;;4.00;;
10719;SDS011;5411;58.386;15.560;2023-02-12T08:34:24;10.27;;;3.37;;
10719;SDS011;5411;58.386;15.560;2023-02-12T08:36:54;7.83;;;3.33;;
10719;SDS011;5411;58.386;15.560;2023-02-12T08:39:23;10.90;;;3.37;;
10719;SDS011;5411;58.386;15.560;2023-02-12T08:41:54;13.67;;;3.70;;
10719;SDS011;5411;58.386;15.560;2023-02-12T08:44:24;13.67;;;3.17;;
10719;SDS011;5411;58.386;15.560;2023-02-12T08:46:53;13.40;;;3.40;;
10719;SDS011;5411;58.386;15.560;2023-02-12T08:49:22;13.83;;;4.47;;
10719;SDS011;5411;58.386;15.560;2023-02-12T08:51:52;14.37;;;3.90;;
10719;SDS011;5411;58.386;15.560;2023-02-12T08:54:23;9.40;;;3.30;;
10719;SDS011;5411;58.386;15.560;2023-02-12T08:56:53;16.87;;;3.13;;
10719;SDS011;5411;58.386;15.560;2023-02-12T08:59:22;16.10;;;3.47;;
10719;SDS011;5411;58.386;15.560;2023-02-12T09:01:52;9.83;;;2.97;;
10719;SDS011;5411;58.386;15.560;2023-02-12T09:04:21;14.73;;;4.70;;
10719;SDS011;5411;58.386;15.560;2023-02-12T09:06:51;14.27;;;3.07;;
10719;SDS011;5411;58.386;15.560;2023-02-12T09:09:20;13.57;;;3.53;;
10719;SDS011;5411;58.386;15.560;2023-02-12T09:11:48;8.37;;;3.67;;
10719;SDS011;5411;58.386;15.560;2023-02-12T09:14:17;12.93;;;3.40;;
10719;SDS011;5411;58.386;15.560;2023-02-12T09:16:51;13.63;;;3.00;;
10719;SDS011;5411;58.386;15.560;2023-02-12T09:19:20;12.13;;;3.57;;
10719;SDS011;5411;58.386;15.560;2023-02-12T09:21:49;8.60;;;2.73;;
10719;SDS011;5411;58.386;15.560;2023-02-12T09:24:21;9.43;;;2.63;;
10719;SDS011;5411;58.386;15.560;2023-02-12T09:26:50;11.07;;;3.07;;
10719;SDS011;5411;58.386;15.560;2023-02-12T09:29:18;15.43;;;3.70;;
10719;SDS011;5411;58.386;15.560;2023-02-12T09:31:46;10.37;;;3.23;;
10719;SDS011;5411;58.386;15.560;2023-02-12T09:34:16;11.50;;;3.17;;
10719;SDS011;5411;58.386;15.560;2023-02-12T09:36:44;7.07;;;3.10;;
10719;SDS011;5411;58.386;15.560;2023-02-12T09:39:13;10.27;;;2.97;;
10719;SDS011;5411;58.386;15.560;2023-02-12T09:41:45;13.40;;;3.70;;
10719;SDS011;5411;58.386;15.560;2023-02-12T09:44:44;10.50;;;2.70;;
10719;SDS011;5411;58.386;15.560;2023-02-12T09:47:22;9.57;;;2.93;;
10719;SDS011;5411;58.386;15.560;2023-02-12T09:50:09;13.33;;;2.63;;
10719;SDS011;5411;58.386;15.560;2023-02-12T09:52:50;8.03;;;2.80;;
10719;SDS011;5411;58.386;15.560;2023-02-12T09:55:19;12.87;;;3.20;;
10719;SDS011;5411;58.386;15.560;2023-02-12T09:57:52;9.40;;;2.60;;
10719;SDS011;5411;58.386;15.560;2023-02-12T10:00:23;6.63;;;2.20;;
10719;SDS011;5411;58.386;15.560;2023-02-12T10:02:57;6.57;;;2.77;;
10719;SDS011;5411;58.386;15.560;2023-02-12T10:05:33;7.23;;;2.63;;
10719;SDS011;5411;58.386;15.560;2023-02-12T10:08:12;9.77;;;2.97;;
10719;SDS011;5411;58.386;15.560;2023-02-12T10:10:51;7.50;;;2.97;;
10719;SDS011;5411;58.386;15.560;2023-02-12T10:13:26;8.67;;;2.50;;
10719;SDS011;5411;58.386;15.560;2023-02-12T10:16:06;8.00;;;2.37;;
10719;SDS011;5411;58.386;15.560;2023-02-12T10:21:45;10.03;;;2.77;;
10719;SDS011;5411;58.386;15.560;2023-02-12T10:27:15;4.83;;;2.20;;
10719;SDS011;5411;58.386;15.560;2023-02-12T10:29:48;6.43;;;2.40;;
10719;SDS011;5411;58.386;15.560;2023-02-12T10:32:21;5.03;;;2.30;;
10719;SDS011;5411;58.386;15.560;2023-02-12T10:34:52;7.17;;;2.27;;
10719;SDS011;5411;58.386;15.560;2023-02-12T10:37:27;5.87;;;2.30;;
10719;SDS011;5411;58.386;15.560;2023-02-12T10:40:04;5.27;;;2.27;;
10719;SDS011;5411;58.386;15.560;2023-02-12T10:42:43;7.23;;;2.30;;
10719;SDS011;5411;58.386;15.560;2023-02-12T10:45:14;5.17;;;1.73;;
10719;SDS011;5411;58.386;15.560;2023-02-12T10:47:44;9.43;;;2.33;;
10719;SDS011;5411;58.386;15.560;2023-02-12T10:50:15;7.17;;;2.30;;
10719;SDS011;5411;58.386;15.560;2023-02-12T10:52:52;6.67;;;2.13;;
10719;SDS011;5411;58.386;15.560;2023-02-12T10:55:24;7.20;;;2.43;;
10719;SDS011;5411;58.386;15.560;2023-02-12T10:57:55;7.17;;;1.90;;
10719;SDS011;5411;58.386;15.560;2023-02-12T11:00:25;2.80;;;1.57;;
10719;SDS011;5411;58.386;15.560;2023-02-12T11:03:01;5.13;;;1.80;;
10719;SDS011;5411;58.386;15.560;2023-02-12T11:05:33;5.27;;;2.13;;
10719;SDS011;5411;58.386;15.560;2023-02-12T11:08:05;2.97;;;1.90;;
10719;SDS011;5411;58.386;15.560;2023-02-12T11:10:35;4.83;;;1.63;;
10719;SDS011;5411;58.386;15.560;2023-02-12T11:13:16;4.33;;;1.83;;
10719;SDS011;5411;58.386;15.560;2023-02-12T11:15:51;4.13;;;1.77;;
10719;SDS011;5411;58.386;15.560;2023-02-12T11:18:22;5.63;;;1.80;;
10719;SDS011;5411;58.386;15.560;2023-02-12T11:20:52;2.47;;;1.80;;
10719;SDS011;5411;58.386;15.560;2023-02-12T11:23:26;4.03;;;1.73;;
10719;SDS011;5411;58.386;15.560;2023-02-12T11:25:57;6.40;;;2.00;;
10719;SDS011;5411;58.386;15.560;2023-02-12T11:28:28;4.13;;;1.70;;
10719;SDS011;5411;58.386;15.560;2023-02-12T11:30:58;2.80;;;1.97;;
10719;SDS011;5411;58.386;15.560;2023-02-12T11:33:29;2.07;;;1.63;;
10719;SDS011;5411;58.386;15.560;2023-02-12T11:36:01;3.13;;;1.73;;
10719;SDS011;5411;58.386;15.560;2023-02-12T11:38:35;2.60;;;1.63;;
10719;SDS011;5411;58.386;15.560;2023-02-12T11:41:07;2.50;;;1.33;;
10719;SDS011;5411;58.386;15.560;2023-02-12T11:43:49;1.70;;;1.60;;
10719;SDS011;5411;58.386;15.560;2023-02-12T11:46:19;3.97;;;1.60;;
10719;SDS011;5411;58.386;15.560;2023-02-12T11:48:51;2.93;;;1.77;;
10719;SDS011;5411;58.386;15.560;2023-02-12T11:51:21;2.87;;;1.33;;
10719;SDS011;5411;58.386;15.560;2023-02-12T11:53:57;2.37;;;1.70;;
10719;SDS011;5411;58.386;15.560;2023-02-12T11:56:39;2.60;;;1.33;;
10719;SDS011;5411;58.386;15.560;2023-02-12T11:59:10;1.60;;;1.47;;
10719;SDS011;5411;58.386;15.560;2023-02-12T12:01:48;2.67;;;1.30;;
10719;SDS011;5411;58.386;15.560;2023-02-12T12:04:20;1.87;;;1.50;;
10719;SDS011;5411;58.386;15.560;2023-02-12T12:06:51;3.03;;;1.70;;
10719;SDS011;5411;58.386;15.560;2023-02-12T12:09:28;2.67;;;1.50;;
10719;SDS011;5411;58.386;15.560;2023-02-12T12:12:03;8.90;;;7.07;;
10719;SDS011;5411;58.386;15.560;2023-02-12T12:14:40;3.20;;;1.50;;
10719;SDS011;5411;58.386;15.560;2023-02-12T12:17:35;1.73;;;1.60;;
10719;SDS011;5411;58.386;15.560;2023-02-12T12:20:26;1.83;;;1.30;;
10719;SDS011;5411;58.386;15.560;2023-02-12T12:22:58;4.37;;;3.80;;
10719;SDS011;5411;58.386;15.560;2023-02-12T12:25:34;3.23;;;1.53;;
10719;SDS011;5411;58.386;15.560;2023-02-12T12:28:13;3.73;;;1.70;;
10719;SDS011;5411;58.386;15.560;2023-02-12T12:31:00;2.57;;;1.83;;
10719;SDS011;5411;58.386;15.560;2023-02-12T12:33:38;3.10;;;2.20;;
10719;SDS011;5411;58.386;15.560;2023-02-12T12:39:26;1.90;;;1.30;;
10719;SDS011;5411;58.386;15.560;2023-02-12T12:45:28;2.60;;;1.30;;
10719;SDS011;5411;58.386;15.560;2023-02-12T12:48:10;1.53;;;1.43;;
10719;SDS011;5411;58.386;15.560;2023-02-12T12:50:56;2.03;;;1.23;;
10719;SDS011;5411;58.386;15.560;2023-02-12T12:53:41;1.60;;;1.40;;
10719;SDS011;5411;58.386;15.560;2023-02-12T12:56:26;1.50;;;1.40;;
10719;SDS011;5411;58.386;15.560;2023-02-12T12:59:18;1.47;;;1.23;;
10719;SDS011;5411;58.386;15.560;2023-02-12T13:08:25;1.73;;;1.27;;
10719;SDS011;5411;58.386;15.560;2023-02-12T13:11:08;2.77;;;1.47;;
10719;SDS011;5411;58.386;15.560;2023-02-12T13:13:48;2.50;;;1.60;;
10719;SDS011;5411;58.386;15.560;2023-02-12T13:16:24;2.90;;;1.63;;
10719;SDS011;5411;58.386;15.560;2023-02-12T13:18:59;3.53;;;1.50;;
10719;SDS011;5411;58.386;15.560;2023-02-12T13:21:36;2.80;;;1.70;;
10719;SDS011;5411;58.386;15.560;2023-02-12T13:24:14;2.53;;;1.30;;
10719;SDS011;5411;58.386;15.560;2023-02-12T13:26:53;3.63;;;1.43;;
10719;SDS011;5411;58.386;15.560;2023-02-12T13:29:24;4.60;;;1.57;;
10719;SDS011;5411;58.386;15.560;2023-02-12T13:31:56;3.67;;;1.43;;
10719;SDS011;5411;58.386;15.560;2023-02-12T13:34:29;2.87;;;1.80;;
10719;SDS011;5411;58.386;15.560;2023-02-12T13:37:03;1.70;;;1.40;;
10719;SDS011;5411;58.386;15.560;2023-02-12T13:39:39;5.60;;;2.27;;
10719;SDS011;5411;58.386;15.560;2023-02-12T13:42:15;4.00;;;1.73;;
10719;SDS011;5411;58.386;15.560;2023-02-12T13:44:56;3.07;;;1.67;;
10719;SDS011;5411;58.386;15.560;2023-02-12T13:47:29;6.17;;;2.30;;
10719;SDS011;5411;58.386;15.560;2023-02-12T13:50:15;4.40;;;2.27;;
10719;SDS011;5411;58.386;15.560;2023-02-12T13:53:00;7.33;;;2.13;;
10719;SDS011;5411;58.386;15.560;2023-02-12T13:55:35;7.03;;;2.10;;
10719;SDS011;5411;58.386;15.560;2023-02-12T14:01:34;5.53;;;1.93;;
10719;SDS011;5411;58.386;15.560;2023-02-12T14:04:20;3.13;;;1.83;;
10719;SDS011;5411;58.386;15.560;2023-02-12T14:06:56;6.40;;;2.50;;
10719;SDS011;5411;58.386;15.560;2023-02-12T14:09:33;8.10;;;2.40;;
10719;SDS011;5411;58.386;15.560;2023-02-12T14:12:04;8.50;;;2.07;;
10719;SDS011;5411;58.386;15.560;2023-02-12T14:14:35;12.13;;;2.63;;
10719;SDS011;5411;58.386;15.560;2023-02-12T14:20:24;8.67;;;2.50;;
10719;SDS011;5411;58.386;15.560;2023-02-12T14:25:57;5.93;;;2.60;;
10719;SDS011;5411;58.386;15.560;2023-02-12T14:28:33;10.57;;;2.60;;
10719;SDS011;5411;58.386;15.560;2023-02-12T14:31:21;9.40;;;2.33;;
10719;SDS011;5411;58.386;15.560;2023-02-12T14:37:30;8.33;;;2.43;;
10719;SDS011;5411;58.386;15.560;2023-02-12T14:43:27;10.47;;;2.70;;
10719;SDS011;5411;58.386;15.560;2023-02-12T14:45:58;10.03;;;2.53;;
10719;SDS011;5411;58.386;15.560;2023-02-12T14:49:15;10.03;;;2.87;;
10719;SDS011;5411;58.386;15.560;2023-02-12T14:51:52;7.53;;;2.27;;
10719;SDS011;5411;58.386;15.560;2023-02-12T14:54:27;11.03;;;2.63;;
10719;SDS011;5411;58.386;15.560;2023-02-12T14:56:59;13.40;;;3.10;;
10719;SDS011;5411;58.386;15.560;2023-02-12T14:59:31;11.80;;;2.73;;
10719;SDS011;5411;58.386;15.560;2023-02-12T15:02:04;10.17;;;2.97;;
10719;SDS011;5411;58.386;15.560;2023-02-12T15:04:36;8.00;;;3.13;;
10719;SDS011;5411;58.386;15.560;2023-02-12T15:07:06;10.63;;;3.27;;
10719;SDS011;5411;58.386;15.560;2023-02-12T15:09:38;13.97;;;2.70;;
10719;SDS011;5411;58.386;15.560;2023-02-12T15:12:15;10.50;;;2.80;;
10719;SDS011;5411;58.386;15.560;2023-02-12T15:14:49;15.03;;;3.27;;
10719;SDS011;5411;58.386;15.560;2023-02-12T15:17:23;9.30;;;2.60;;
10719;SDS011;5411;58.386;15.560;2023-02-12T15:19:58;14.60;;;3.43;;
10719;SDS011;5411;58.386;15.560;2023-02-12T15:22:30;9.97;;;2.63;;
10719;SDS011;5411;58.386;15.560;2023-02-12T15:25:13;11.37;;;3.03;;
10719;SDS011;5411;58.386;15.560;2023-02-12T15:27:43;12.80;;;2.77;;
10719;SDS011;5411;58.386;15.560;2023-02-12T15:30:15;14.80;;;3.00;;
10719;SDS011;5411;58.386;15.560;2023-02-12T15:32:51;9.10;;;2.47;;
10719;SDS011;5411;58.386;15.560;2023-02-12T15:35:24;9.30;;;2.47;;
10719;SDS011;5411;58.386;15.560;2023-02-12T15:37:55;11.00;;;2.87;;
10719;SDS011;5411;58.386;15.560;2023-02-12T15:40:25;10.00;;;3.07;;
10719;SDS011;5411;58.386;15.560;2023-02-12T15:42:55;11.90;;;3.47;;
10719;SDS011;5411;58.386;15.560;2023-02-12T15:45:26;10.20;;;2.87;;
10719;SDS011;5411;58.386;15.560;2023-02-12T15:47:58;8.37;;;3.00;;
10719;SDS011;5411;58.386;15.560;2023-02-12T15:50:31;14.43;;;2.90;;
10719;SDS011;5411;58.386;15.560;2023-02-12T15:53:01;11.20;;;2.80;;
10719;SDS011;5411;58.386;15.560;2023-02-12T15:55:32;9.13;;;2.47;;
10719;SDS011;5411;58.386;15.560;2023-02-12T15:58:13;10.33;;;2.60;;